Airfield :
LOGIN :

Register | Disclaimer

   EN    FR    IT 

 










Legend :    VFR   Marginal VFR   IFR   Intensive IFR   Very Intensive IFR
Visi :
Ceiling :
>= 8 km
>= 3000ft
5 to 8 km
1000 to 3000 ft
1500m to 5 km
500 to 1000 ft
800 to 1500m
200 to 500 ft
< 800m
< 200 ft
Symbols :   Thunderstorms  Fog  Heavy snow  Heavy precipitations  Wind > 20 kt
SIGMETs :     Misc.  Thunderstorms  Icing  Turbulence  Mountain Waves  Volcanic Ashes






- Airport Elevation : 102 ft
- IATA code : EXT


EGTE - Exeter

CURRENT METAR :
  • 251020Z 30010KT 9999 BKN025 16/10 Q1018

EXPIRED METARs :
  • 250950Z 29010KT 260V320 9999 FEW014 BKN026 15/10 Q1018
  • 250920Z 31010KT 9999 SCT014 BKN025 15/11 Q1018
  • 250850Z 31009KT 280V340 9999 VCSH SCT011 BKN020 15/12 Q1018
  • 250820Z 29008KT 250V310 9999 VCSH SCT011 BKN018 15/13 Q1018
  • 250750Z 30009KT 9999 VCSH SCT012 BKN022 15/14 Q1018

TAF TAF EGTE
Valid from the 25 at 09:00 until the 25 at 18:00 UTC


250802Z 2509/2518 30009KT 9999 BKN007
BECMG 2509/2511 SCT018
PROB30
TEMPO 2516/2518 6000 -SHRA BKN010



MET'MAP, your aeronautical weather chart ! - Copyright ORBIFLY December 2007 - Disclaimer

ORBIFLY MET'MAP TEAM :

Programming & Development : Alexandra Zaïnal
Concept & original design : Baudouin d'Aumeries
Assistance for programming : Marc-Olivier Méhu
Technical & hardware support : Manuel Goepfert

Contact : metmap@orbifly.com




SOURCES & CREDITS :

   NOAA